createdAt,value
2018-09-27T00:00:28.036Z,100575.91
2018-09-27T00:03:02.630Z,100578.94
2018-09-27T00:05:37.361Z,100581.62
2018-09-27T00:08:11.912Z,100563.67
2018-09-27T00:10:46.436Z,100568.87
2018-09-27T00:13:20.988Z,100568.06
2018-09-27T00:15:55.664Z,100569.16
2018-09-27T00:18:30.161Z,100573.23
2018-09-27T00:21:04.961Z,100571.88
2018-09-27T00:23:39.455Z,100566.16
2018-09-27T00:26:14.068Z,100571.05
2018-09-27T00:28:48.774Z,100566.43
2018-09-27T00:31:23.409Z,100560.42
2018-09-27T00:33:57.990Z,100561.23
2018-09-27T00:36:32.592Z,100555.52
2018-09-27T00:39:09.508Z,100562.03
2018-09-27T00:41:44.021Z,100564.75
2018-09-27T00:44:18.689Z,100563.11
2018-09-27T00:46:53.288Z,100556.05
2018-09-27T00:49:27.790Z,100556.33
2018-09-27T00:52:02.472Z,100560.94
2018-09-27T00:54:40.364Z,100555.45
2018-09-27T00:57:24.562Z,100558.18
2018-09-27T01:00:06.929Z,100561.22
2018-09-27T01:02:41.440Z,100559.31
2018-09-27T01:05:16.040Z,100559.05
2018-09-27T01:07:50.677Z,100551.44
2018-09-27T01:10:25.146Z,100551.12
2018-09-27T01:15:58.506Z,100544.57
2018-09-27T01:18:33.296Z,100550.02
2018-09-27T01:21:07.745Z,100553.55
2018-09-27T01:23:42.349Z,100549.45
2018-09-27T01:26:16.975Z,100550.01
2018-09-27T01:28:51.917Z,100536.69
2018-09-27T01:31:26.315Z,100528.80
2018-09-27T01:34:00.952Z,100536.41
2018-09-27T01:36:35.606Z,100537.25
2018-09-27T01:39:10.643Z,100538.87
2018-09-27T01:41:45.277Z,100539.44
2018-09-27T01:44:19.821Z,100542.97
2018-09-27T01:46:54.428Z,100537.52
2018-09-27T01:49:28.833Z,100537.52
2018-09-27T01:52:03.557Z,100528.82
2018-09-27T01:54:38.298Z,100538.59
2018-09-27T01:57:12.725Z,100536.42
2018-09-27T01:59:47.424Z,100533.97
2018-09-27T02:02:22.445Z,100526.89
2018-09-27T02:04:57.016Z,100530.06
2018-09-27T02:07:31.618Z,100519.75
2018-09-27T02:10:06.233Z,100516.24
2018-09-27T02:12:40.827Z,100520.88
2018-09-27T02:15:15.597Z,100518.48
2018-09-27T02:17:50.209Z,100510.34
2018-09-27T02:20:24.795Z,100515.50
2018-09-27T02:22:59.280Z,100513.81
2018-09-27T02:25:33.813Z,100511.09
2018-09-27T02:28:08.249Z,100502.67
2018-09-27T02:30:42.689Z,100499.74
2018-09-27T02:33:17.349Z,100496.22
2018-09-27T02:35:51.808Z,100495.15
2018-09-27T02:38:26.512Z,100497.33
2018-09-27T02:41:01.053Z,100494.06
2018-09-27T02:43:35.688Z,100498.98
2018-09-27T02:46:10.254Z,100492.74
2018-09-27T02:48:45.205Z,100486.22
2018-09-27T02:51:20.082Z,100488.39
2018-09-27T02:53:54.590Z,100492.47
2018-09-27T02:56:29.200Z,100492.74
2018-09-27T02:59:03.688Z,100493.83
2018-09-27T03:01:38.138Z,100488.94
2018-09-27T03:04:12.717Z,100480.52
2018-09-27T03:06:47.218Z,100479.16
2018-09-27T03:09:21.829Z,100483.77
2018-09-27T03:11:56.365Z,100477.49
2018-09-27T03:14:31.018Z,100482.11
2018-09-27T03:17:05.781Z,100482.38
2018-09-27T03:19:40.764Z,100475.85
2018-09-27T03:22:15.331Z,100482.37
2018-09-27T03:24:50.213Z,100469.06
2018-09-27T03:27:24.854Z,100466.61
2018-09-27T03:29:59.421Z,100464.98
2018-09-27T03:35:13.850Z,100457.11
2018-09-27T03:37:48.344Z,100452.77
2018-09-27T03:40:23.342Z,100450.59
2018-09-27T03:42:57.970Z,100447.61
2018-09-27T03:45:32.556Z,100445.43
2018-09-27T03:48:07.057Z,100444.08
2018-09-27T03:50:41.534Z,100439.45
2018-09-27T03:53:16.145Z,100436.47
2018-09-27T03:55:50.554Z,100429.67
2018-09-27T03:58:25.093Z,100431.03
2018-09-27T04:00:59.555Z,100423.97
2018-09-27T04:03:34.154Z,100429.95
2018-09-27T04:06:08.665Z,100427.23
2018-09-27T04:08:43.236Z,100418.55
2018-09-27T04:11:17.712Z,100418.55
2018-09-27T04:13:52.579Z,100412.56
2018-09-27T04:16:27.173Z,100412.56
2018-09-27T04:19:01.639Z,100409.31
2018-09-27T04:21:36.252Z,100412.30
2018-09-27T04:24:10.851Z,100412.56
2018-09-27T04:26:48.966Z,100414.74
2018-09-27T04:29:36.980Z,100422.34
2018-09-27T04:32:11.418Z,100418.81
2018-09-27T04:34:46.237Z,100421.80
2018-09-27T04:37:20.737Z,100422.88
2018-09-27T04:39:55.351Z,100423.16
2018-09-27T04:42:30.036Z,100425.33
2018-09-27T04:45:04.780Z,100420.69
2018-09-27T04:47:39.526Z,100420.95
2018-09-27T04:50:14.256Z,100423.39
2018-09-27T04:52:48.870Z,100419.33
2018-09-27T04:55:23.384Z,100418.23
2018-09-27T04:57:57.982Z,100425.57
2018-09-27T05:00:32.528Z,100418.50
2018-09-27T05:03:07.123Z,100425.30
2018-09-27T05:05:41.720Z,100425.02
2018-09-27T05:08:16.710Z,100426.38
2018-09-27T05:10:51.417Z,100417.69
2018-09-27T05:13:26.119Z,100417.96
2018-09-27T05:16:00.807Z,100425.30
2018-09-27T05:18:35.441Z,100417.42
2018-09-27T05:21:10.333Z,100412.53
2018-09-27T05:23:45.168Z,100421.48
2018-09-27T05:26:20.074Z,100416.06
2018-09-27T05:28:54.608Z,100415.52
2018-09-27T05:31:29.147Z,100407.09
2018-09-27T05:34:03.772Z,100401.94
2018-09-27T05:36:38.336Z,100397.05
2018-09-27T05:39:13.136Z,100403.02
2018-09-27T05:41:47.805Z,100404.66
2018-09-27T05:44:22.787Z,100391.08
2018-09-27T05:46:57.405Z,100398.45
2018-09-27T05:49:31.904Z,100392.47
2018-09-27T05:52:07.082Z,100396.81
2018-09-27T05:54:41.671Z,100388.40
2018-09-27T05:57:16.408Z,100389.76
2018-09-27T05:59:51.245Z,100380.25
2018-09-27T06:02:25.996Z,100376.99
2018-09-27T06:05:00.560Z,100393.28
2018-09-27T06:07:35.111Z,100388.40
2018-09-27T06:10:09.677Z,100390.02
2018-09-27T06:12:44.244Z,100383.77
2018-09-27T06:15:18.948Z,100382.69
2018-09-27T06:17:53.565Z,100377.25
2018-09-27T06:20:28.211Z,100384.03
2018-09-27T06:23:03.201Z,100378.60
2018-09-27T06:25:37.913Z,100380.80
2018-09-27T06:28:12.542Z,100387.58
2018-09-27T06:30:47.331Z,100381.05
2018-09-27T06:33:21.853Z,100381.04
2018-09-27T06:35:56.661Z,100384.58
2018-09-27T06:38:31.380Z,100381.56
2018-09-27T06:41:05.952Z,100379.63
2018-09-27T06:43:40.752Z,100372.97
2018-09-27T06:46:15.614Z,100368.52
2018-09-27T06:48:52.347Z,100370.36
2018-09-27T06:51:27.502Z,100369.27
2018-09-27T06:54:02.076Z,100361.64
2018-09-27T06:56:36.574Z,100356.86
2018-09-27T06:59:11.405Z,100353.88
2018-09-27T07:01:46.104Z,100359.26
2018-09-27T07:04:20.940Z,100349.81
2018-09-27T07:06:55.652Z,100350.07
2018-09-27T07:09:30.382Z,100354.59
2018-09-27T07:12:05.210Z,100357.36
2018-09-27T07:14:39.850Z,100365.69
2018-09-27T07:17:14.425Z,100356.86
2018-09-27T07:19:49.598Z,100364.92
2018-09-27T07:22:24.084Z,100361.09
2018-09-27T07:24:58.627Z,100360.45
2018-09-27T07:27:33.444Z,100364.83
2018-09-27T07:30:08.320Z,100352.41
2018-09-27T07:32:43.272Z,100360.05
2018-09-27T07:35:17.850Z,100370.53
2018-09-27T07:37:52.875Z,100365.14
2018-09-27T07:40:27.545Z,100369.78
2018-09-27T07:43:02.057Z,100362.09
2018-09-27T07:45:36.595Z,100364.49
2018-09-27T07:48:11.345Z,100362.78
2018-09-27T07:50:45.908Z,100369.75
2018-09-27T07:53:20.684Z,100372.98
2018-09-27T07:56:08.995Z,100372.93
2018-09-27T07:58:53.896Z,100371.11
2018-09-27T08:01:28.572Z,100370.08
2018-09-27T08:07:03.930Z,100367.24
2018-09-27T08:09:41.527Z,100362.63
2018-09-27T08:12:16.140Z,100354.22
2018-09-27T08:14:51.012Z,100357.82
2018-09-27T08:17:25.554Z,100355.05
2018-09-27T08:20:13.042Z,100347.78
2018-09-27T08:22:56.065Z,100352.16
2018-09-27T08:25:30.685Z,100350.41
2018-09-27T08:28:05.425Z,100353.81
2018-09-27T08:30:40.777Z,100344.88
2018-09-27T08:33:15.410Z,100339.25
2018-09-27T08:35:49.967Z,100341.56
2018-09-27T08:38:24.763Z,100339.86
2018-09-27T08:40:59.369Z,100335.91
2018-09-27T08:43:33.993Z,100337.28
2018-09-27T08:46:08.683Z,100333.89
2018-09-27T08:48:43.196Z,100331.53
2018-09-27T08:51:17.939Z,100322.80
2018-09-27T08:53:52.535Z,100313.09
2018-09-27T08:56:27.118Z,100316.98
2018-09-27T08:59:01.822Z,100305.57
2018-09-27T09:01:36.381Z,100311.42
2018-09-27T09:04:10.851Z,100312.98
2018-09-27T09:06:45.505Z,100306.83
2018-09-27T09:09:20.288Z,100302.10
2018-09-27T09:11:54.855Z,100306.90
2018-09-27T09:14:29.411Z,100301.69
2018-09-27T09:17:04.405Z,100295.55
2018-09-27T09:19:39.249Z,100299.01
2018-09-27T09:22:13.655Z,100296.97
2018-09-27T09:24:48.360Z,100292.69
2018-09-27T09:27:23.022Z,100292.92
2018-09-27T09:29:57.636Z,100292.45
2018-09-27T09:32:32.527Z,100283.73
2018-09-27T09:35:07.264Z,100282.58
2018-09-27T09:37:41.929Z,100278.11
2018-09-27T09:40:16.600Z,100283.41
2018-09-27T09:42:51.212Z,100275.47
2018-09-27T09:45:25.970Z,100273.16
2018-09-27T09:48:00.624Z,100269.80
2018-09-27T09:50:35.303Z,100265.13
2018-09-27T09:53:09.890Z,100268.05
2018-09-27T09:55:44.608Z,100256.84
2018-09-27T09:58:19.419Z,100255.56
2018-09-27T10:00:54.331Z,100246.78
2018-09-27T10:03:29.150Z,100241.13
2018-09-27T10:06:03.853Z,100249.80
2018-09-27T10:08:38.984Z,100233.02
2018-09-27T10:11:13.625Z,100235.47
2018-09-27T10:13:48.330Z,100227.27
2018-09-27T10:16:23.207Z,100233.00
2018-09-27T10:18:57.693Z,100226.65
2018-09-27T10:21:32.262Z,100224.39
2018-09-27T10:24:06.908Z,100214.41
2018-09-27T10:26:41.689Z,100216.01
2018-09-27T10:29:16.331Z,100214.55
2018-09-27T10:31:51.141Z,100211.28
2018-09-27T10:34:26.255Z,100205.59
2018-09-27T10:37:00.872Z,100204.05
2018-09-27T10:39:35.457Z,100203.83
2018-09-27T10:42:09.989Z,100198.59
2018-09-27T10:44:44.845Z,100193.53
2018-09-27T10:47:19.519Z,100190.20
2018-09-27T10:49:54.198Z,100186.76
2018-09-27T10:52:29.148Z,100187.56
2018-09-27T10:55:03.645Z,100181.45
2018-09-27T10:57:38.476Z,100183.53
2018-09-27T11:00:21.837Z,100179.42
2018-09-27T11:02:56.453Z,100177.32
2018-09-27T11:05:31.051Z,100177.95
2018-09-27T11:08:05.912Z,100169.04
2018-09-27T11:10:40.622Z,100171.26
2018-09-27T11:13:15.070Z,100166.52
2018-09-27T11:15:50.041Z,100171.95
2018-09-27T11:18:24.862Z,100163.33
2018-09-27T11:20:59.471Z,100155.70
2018-09-27T11:23:34.640Z,100147.30
2018-09-27T11:26:09.633Z,100147.21
2018-09-27T11:28:49.491Z,100135.47
2018-09-27T11:31:29.266Z,100138.11
2018-09-27T11:34:03.933Z,100140.07
2018-09-27T11:36:38.473Z,100124.16
2018-09-27T11:39:12.941Z,100126.23
2018-09-27T11:41:47.607Z,100123.13
2018-09-27T11:44:22.036Z,100117.27
2018-09-27T11:46:56.569Z,100109.11
2018-09-27T11:49:31.275Z,100106.45
2018-09-27T11:52:05.962Z,100099.08
2018-09-27T11:54:40.585Z,100095.44
2018-09-27T11:57:15.182Z,100095.56
2018-09-27T11:59:49.876Z,100086.35
2018-09-27T12:02:24.458Z,100074.09
2018-09-27T12:04:59.105Z,100070.98
2018-09-27T12:07:33.853Z,100065.69
2018-09-27T12:10:08.345Z,100061.56
2018-09-27T12:12:42.995Z,100058.37
2018-09-27T12:15:17.816Z,100062.08
2018-09-27T12:17:52.172Z,100047.11
2018-09-27T12:20:26.513Z,100050.58
2018-09-27T12:23:00.970Z,100043.30
2018-09-27T12:25:35.401Z,100038.83
2018-09-27T12:28:09.781Z,100036.45
2018-09-27T12:30:44.327Z,100021.81
2018-09-27T12:33:19.049Z,100021.00
2018-09-27T12:36:02.019Z,100022.73
2018-09-27T12:38:41.530Z,100005.33
2018-09-27T12:41:16.068Z,100005.00
2018-09-27T12:43:50.773Z,100007.77
2018-09-27T12:46:25.597Z,99997.84
2018-09-27T12:49:00.076Z,99994.66
2018-09-27T12:51:34.703Z,99988.42
2018-09-27T12:54:09.169Z,99984.16
2018-09-27T12:56:43.780Z,99985.01
2018-09-27T12:59:18.718Z,99980.73
2018-09-27T13:01:53.468Z,99981.08
2018-09-27T13:04:27.797Z,99970.47
2018-09-27T13:07:02.355Z,99958.70
2018-09-27T13:09:37.105Z,99949.69
2018-09-27T13:12:11.872Z,99946.53
2018-09-27T13:14:46.347Z,99941.76
2018-09-27T13:17:21.018Z,99933.55
2018-09-27T13:19:55.793Z,99927.26
2018-09-27T13:22:30.832Z,99929.49
2018-09-27T13:25:05.612Z,99919.68
2018-09-27T13:27:40.064Z,99911.52
2018-09-27T13:30:14.782Z,99909.02
2018-09-27T13:32:49.285Z,99906.69
2018-09-27T13:35:23.645Z,99898.67
2018-09-27T13:37:58.253Z,99901.30
2018-09-27T13:40:32.778Z,99894.88
2018-09-27T13:43:07.306Z,99889.30
2018-09-27T13:45:41.829Z,99885.95
2018-09-27T13:48:16.408Z,99880.89
2018-09-27T13:50:51.032Z,99882.27
2018-09-27T13:53:25.541Z,99873.77
2018-09-27T13:56:00.210Z,99878.59
2018-09-27T13:58:34.746Z,99867.97
2018-09-27T14:01:09.598Z,99872.12
2018-09-27T14:03:43.933Z,99866.73
2018-09-27T14:06:18.472Z,99869.36
2018-09-27T14:08:53.028Z,99868.92
2018-09-27T14:11:27.504Z,99859.02
2018-09-27T14:14:02.094Z,99856.48
2018-09-27T14:16:36.644Z,99850.37
2018-09-27T14:19:11.276Z,99852.03
2018-09-27T14:21:45.917Z,99844.23
2018-09-27T14:24:20.428Z,99839.52
2018-09-27T14:26:55.010Z,99834.28
2018-09-27T14:29:29.642Z,99835.73
2018-09-27T14:32:04.268Z,99829.77
2018-09-27T14:34:38.833Z,99828.57
2018-09-27T14:37:13.355Z,99826.84
2018-09-27T14:39:47.926Z,99815.52
2018-09-27T14:42:22.401Z,99818.63
2018-09-27T14:44:57.226Z,99809.33
2018-09-27T14:47:52.225Z,99804.19
2018-09-27T14:50:31.885Z,99809.87
2018-09-27T14:53:06.511Z,99798.30
2018-09-27T14:55:41.229Z,99801.81
2018-09-27T14:58:16.141Z,99797.91
2018-09-27T15:00:50.503Z,99796.80
2018-09-27T15:03:24.913Z,99790.25
2018-09-27T15:05:59.653Z,99789.33
2018-09-27T15:08:34.186Z,99785.19
2018-09-27T15:11:08.616Z,99786.91
2018-09-27T15:13:43.152Z,99779.25
2018-09-27T15:16:17.918Z,99787.57
2018-09-27T15:18:52.540Z,99781.80
2018-09-27T15:21:27.009Z,99785.70
2018-09-27T15:24:02.713Z,99782.47
2018-09-27T15:26:37.239Z,99768.60
2018-09-27T15:29:11.953Z,99778.95
2018-09-27T15:31:46.424Z,99776.34
2018-09-27T15:34:20.866Z,99771.61
2018-09-27T15:36:55.226Z,99770.59
2018-09-27T15:39:29.639Z,99771.91
2018-09-27T15:42:04.384Z,99768.03
2018-09-27T15:44:39.109Z,99771.16
2018-09-27T15:47:13.837Z,99767.25
2018-09-27T15:49:48.329Z,99766.84
2018-09-27T15:52:22.828Z,99758.61
2018-09-27T15:54:57.241Z,99757.75
2018-09-27T15:57:31.697Z,99755.98
2018-09-27T16:00:06.517Z,99751.89
2018-09-27T16:02:41.044Z,99737.88
2018-09-27T16:05:15.633Z,99740.19
2018-09-27T16:07:50.231Z,99741.53
2018-09-27T16:10:24.894Z,99743.09
2018-09-27T16:12:59.310Z,99739.82
2018-09-27T16:15:33.786Z,99730.03
2018-09-27T16:18:08.396Z,99730.14
2018-09-27T16:20:42.964Z,99727.63
2018-09-27T16:23:17.976Z,99716.48
2018-09-27T16:25:52.417Z,99715.57
2018-09-27T16:28:26.881Z,99717.96
2018-09-27T16:31:01.726Z,99715.27
2018-09-27T16:33:36.667Z,99714.15
2018-09-27T16:36:11.312Z,99716.08
2018-09-27T16:38:47.857Z,99721.94
2018-09-27T16:41:22.780Z,99723.10
2018-09-27T16:43:57.459Z,99721.50
2018-09-27T16:46:49.014Z,99712.52
2018-09-27T16:49:23.645Z,99718.78
2018-09-27T16:51:58.275Z,99719.02
2018-09-27T16:54:33.030Z,99712.53
2018-09-27T16:57:08.253Z,99717.39
2018-09-27T16:59:43.100Z,99715.47
2018-09-27T17:02:17.886Z,99722.95
2018-09-27T17:04:52.652Z,99712.49
2018-09-27T17:07:27.372Z,99712.94
2018-09-27T17:10:01.999Z,99705.50
2018-09-27T17:12:36.613Z,99710.61
2018-09-27T17:15:11.074Z,99704.52
2018-09-27T17:17:45.798Z,99703.34
2018-09-27T17:20:20.609Z,99698.05
2018-09-27T17:22:55.432Z,99702.83
2018-09-27T17:25:29.973Z,99703.61
2018-09-27T17:28:04.491Z,99708.22
2018-09-27T17:30:39.297Z,99702.56
2018-09-27T17:33:14.012Z,99708.63
2018-09-27T17:35:48.641Z,99704.45
2018-09-27T17:38:23.428Z,99704.00
2018-09-27T17:40:57.991Z,99699.20
2018-09-27T17:43:32.435Z,99698.47
2018-09-27T17:46:07.017Z,99699.35
2018-09-27T17:48:41.618Z,99692.88
2018-09-27T17:51:16.179Z,99693.52
2018-09-27T17:53:50.692Z,99696.33
2018-09-27T17:56:25.142Z,99689.80
2018-09-27T17:58:59.824Z,99693.61
2018-09-27T18:01:34.406Z,99690.86
2018-09-27T18:04:08.992Z,99693.83
2018-09-27T18:06:43.640Z,99691.97
2018-09-27T18:09:18.456Z,99694.14
2018-09-27T18:11:53.126Z,99696.95
2018-09-27T18:14:28.061Z,99696.52
2018-09-27T18:17:03.804Z,99690.23
2018-09-27T18:19:38.336Z,99687.82
2018-09-27T18:22:12.942Z,99680.50
2018-09-27T18:24:55.101Z,99684.11
2018-09-27T18:27:30.434Z,99680.81
2018-09-27T18:30:05.066Z,99687.97
2018-09-27T18:32:40.066Z,99681.77
2018-09-27T18:35:14.649Z,99684.17
2018-09-27T18:37:49.445Z,99682.31
2018-09-27T18:40:23.949Z,99677.41
2018-09-27T18:42:58.676Z,99676.99
2018-09-27T18:45:33.453Z,99677.62
2018-09-27T18:48:08.021Z,99678.80
2018-09-27T18:50:42.821Z,99680.63
2018-09-27T18:53:17.632Z,99676.84
2018-09-27T18:55:52.513Z,99678.91
2018-09-27T18:58:27.037Z,99678.66
2018-09-27T19:01:01.788Z,99685.57
2018-09-27T19:03:36.485Z,99675.91
2018-09-27T19:06:11.442Z,99678.43
2018-09-27T19:08:46.081Z,99685.19
2018-09-27T19:11:20.586Z,99682.81
2018-09-27T19:13:55.282Z,99680.95
2018-09-27T19:16:29.896Z,99679.84
2018-09-27T19:19:04.604Z,99676.30
2018-09-27T19:21:39.457Z,99683.20
2018-09-27T19:24:14.085Z,99677.45
2018-09-27T19:26:48.766Z,99681.55
2018-09-27T19:29:23.518Z,99679.13
2018-09-27T19:31:58.376Z,99673.80
2018-09-27T19:34:32.929Z,99674.75
2018-09-27T19:37:07.388Z,99670.22
2018-09-27T19:39:42.073Z,99666.48
2018-09-27T19:42:16.672Z,99671.77
2018-09-27T19:44:51.422Z,99669.97
2018-09-27T19:47:25.946Z,99673.13
2018-09-27T19:50:00.615Z,99671.58
2018-09-27T19:52:35.565Z,99670.66
2018-09-27T19:55:10.293Z,99672.47
2018-09-27T19:57:44.955Z,99667.94
2018-09-27T20:00:19.600Z,99667.14
2018-09-27T20:02:54.276Z,99663.04
2018-09-27T20:05:28.892Z,99667.55
2018-09-27T20:08:03.674Z,99668.48
2018-09-27T20:10:38.556Z,99662.34
2018-09-27T20:13:13.205Z,99668.17
2018-09-27T20:15:48.022Z,99666.80
2018-09-27T20:18:22.698Z,99671.64
2018-09-27T20:20:57.252Z,99668.91
2018-09-27T20:23:31.952Z,99673.37
2018-09-27T20:26:06.984Z,99671.20
2018-09-27T20:28:41.554Z,99669.04
2018-09-27T20:31:16.033Z,99666.31
2018-09-27T20:33:50.766Z,99669.78
2018-09-27T20:36:25.348Z,99668.48
2018-09-27T20:38:59.983Z,99669.91
2018-09-27T20:41:34.518Z,99666.68
2018-09-27T20:44:09.009Z,99665.53
2018-09-27T20:46:43.810Z,99668.20
2018-09-27T20:49:18.377Z,99669.06
2018-09-27T20:51:53.272Z,99668.38
2018-09-27T20:54:28.290Z,99665.66
2018-09-27T20:57:02.856Z,99670.30
2018-09-27T20:59:37.352Z,99671.66
2018-09-27T21:02:11.968Z,99667.02
2018-09-27T21:04:46.520Z,99667.63
2018-09-27T21:07:21.257Z,99667.38
2018-09-27T21:09:55.999Z,99669.16
2018-09-27T21:12:30.911Z,99670.59
2018-09-27T21:15:06.241Z,99665.51
2018-09-27T21:17:40.660Z,99660.61
2018-09-27T21:20:14.985Z,99660.66
2018-09-27T21:22:49.455Z,99663.70
2018-09-27T21:25:24.026Z,99661.59
2018-09-27T21:27:58.491Z,99663.13
2018-09-27T21:30:32.965Z,99662.38
2018-09-27T21:33:08.490Z,99658.84
2018-09-27T21:35:43.061Z,99659.20
2018-09-27T21:38:18.274Z,99655.22
2018-09-27T21:40:53.121Z,99652.02
2018-09-27T21:43:27.618Z,99653.94
2018-09-27T21:46:02.373Z,99646.18
2018-09-27T21:48:36.816Z,99652.08
2018-09-27T21:51:11.608Z,99646.12
2018-09-27T21:53:46.073Z,99654.05
2018-09-27T21:56:20.737Z,99648.16
2018-09-27T21:58:55.493Z,99652.30
2018-09-27T22:01:30.237Z,99649.93
2018-09-27T22:04:23.091Z,99660.13
2018-09-27T22:07:18.044Z,99656.84
2018-09-27T22:09:53.100Z,99657.00
2018-09-27T22:12:27.587Z,99658.44
2018-09-27T22:15:02.477Z,99657.03
2018-09-27T22:17:37.012Z,99656.58
2018-09-27T22:20:11.703Z,99657.53
2018-09-27T22:22:46.377Z,99652.95
2018-09-27T22:25:20.852Z,99656.33
2018-09-27T22:27:55.469Z,99649.98
2018-09-27T22:30:30.021Z,99649.66
2018-09-27T22:33:04.508Z,99644.69
2018-09-27T22:35:39.788Z,99647.50
2018-09-27T22:38:14.336Z,99646.84
2018-09-27T22:40:48.808Z,99645.82
2018-09-27T22:43:23.615Z,99649.40
2018-09-27T22:45:58.108Z,99652.48
2018-09-27T22:48:32.669Z,99651.67
2018-09-27T22:51:07.251Z,99644.11
2018-09-27T22:53:41.849Z,99652.27
2018-09-27T22:56:16.425Z,99647.73
2018-09-27T22:58:50.950Z,99649.14
2018-09-27T23:01:25.307Z,99642.73
2018-09-27T23:03:59.716Z,99641.45
2018-09-27T23:06:34.176Z,99634.66
2018-09-27T23:09:08.993Z,99635.27
2018-09-27T23:11:43.633Z,99638.62
2018-09-27T23:14:34.197Z,99637.34
2018-09-27T23:17:08.533Z,99642.53
2018-09-27T23:19:42.873Z,99641.16
2018-09-27T23:22:17.344Z,99637.17
2018-09-27T23:24:51.838Z,99631.01
2018-09-27T23:27:26.240Z,99634.58
2018-09-27T23:30:00.892Z,99622.17
2018-09-27T23:32:35.404Z,99626.80
2018-09-27T23:35:09.900Z,99623.10
2018-09-27T23:37:44.336Z,99623.44
2018-09-27T23:40:18.868Z,99619.14
2018-09-27T23:42:53.393Z,99617.01
2018-09-27T23:45:27.834Z,99628.17
2018-09-27T23:48:02.472Z,99619.77
2018-09-27T23:50:37.052Z,99618.41
2018-09-27T23:53:11.525Z,99622.23
2018-09-27T23:55:46.069Z,99630.17
2018-09-27T23:58:20.572Z,99625.91
